createdAt,value
2023-05-09T00:00:13.796Z,19.65
2023-05-09T00:01:15.502Z,24.50
2023-05-09T00:02:18.035Z,25.17
2023-05-09T00:03:19.962Z,22.95
2023-05-09T00:04:21.750Z,18.13
2023-05-09T00:05:23.559Z,21.58
2023-05-09T00:06:27.764Z,24.88
2023-05-09T00:07:30.114Z,21.48
2023-05-09T00:08:31.810Z,22.40
2023-05-09T00:09:33.576Z,18.30
2023-05-09T00:10:35.409Z,16.75
2023-05-09T00:11:37.145Z,18.70
2023-05-09T00:12:39.189Z,21.40
2023-05-09T00:13:42.068Z,17.27
2023-05-09T00:14:45.634Z,19.65
2023-05-09T00:15:47.375Z,21.33
2023-05-09T00:16:49.410Z,21.70
2023-05-09T00:17:51.678Z,16.45
2023-05-09T00:18:53.402Z,19.15
2023-05-09T00:19:55.593Z,21.75
2023-05-09T00:20:57.809Z,18.50
2023-05-09T00:21:59.585Z,21.75
2023-05-09T00:23:01.311Z,19.73
2023-05-09T00:24:03.030Z,24.15
2023-05-09T00:25:05.973Z,23.60
2023-05-09T00:26:08.023Z,20.63
2023-05-09T00:27:10.425Z,23.48
2023-05-09T00:28:12.174Z,23.38
2023-05-09T00:29:13.854Z,21.67
2023-05-09T00:30:15.618Z,25.85
2023-05-09T00:31:17.322Z,25.40
2023-05-09T00:32:19.098Z,29.15
2023-05-09T00:33:21.358Z,24.67
2023-05-09T00:34:23.120Z,28.05
2023-05-09T00:35:24.811Z,24.48
2023-05-09T00:36:26.491Z,24.75
2023-05-09T00:37:30.674Z,26.65
2023-05-09T00:38:32.469Z,26.58
2023-05-09T00:39:34.163Z,28.13
2023-05-09T00:40:35.856Z,25.38
2023-05-09T00:41:37.546Z,30.98
2023-05-09T00:42:39.396Z,25.00
2023-05-09T00:43:41.109Z,27.63
2023-05-09T00:44:43.044Z,27.17
2023-05-09T00:45:45.705Z,25.38
2023-05-09T00:46:47.557Z,26.58
2023-05-09T00:47:49.512Z,30.02
2023-05-09T00:48:52.506Z,25.65
2023-05-09T00:49:54.629Z,27.67
2023-05-09T00:50:56.479Z,28.10
2023-05-09T00:51:59.018Z,27.85
2023-05-09T00:53:01.081Z,25.92
2023-05-09T00:54:02.954Z,24.85
2023-05-09T00:55:08.474Z,25.50
2023-05-09T00:56:12.218Z,27.70
2023-05-09T00:57:14.605Z,26.55
2023-05-09T00:58:17.087Z,28.77
2023-05-09T00:59:19.080Z,25.48
2023-05-09T01:00:21.575Z,28.98
2023-05-09T01:01:24.297Z,25.02
2023-05-09T01:02:27.346Z,28.40
2023-05-09T01:03:30.201Z,31.70
2023-05-09T01:04:32.464Z,28.80
2023-05-09T01:05:44.163Z,26.70
2023-05-09T01:07:09.600Z,27.17
2023-05-09T01:08:36.930Z,25.63
2023-05-09T01:09:56.653Z,26.80
2023-05-09T01:10:58.291Z,25.20
2023-05-09T01:12:47.229Z,25.95
2023-05-09T01:13:59.866Z,26.23
2023-05-09T01:15:16.714Z,25.83
2023-05-09T01:16:51.204Z,25.00
2023-05-09T01:17:59.392Z,25.77
2023-05-09T01:19:06.952Z,25.45
2023-05-09T01:20:49.911Z,23.83
2023-05-09T01:21:53.112Z,25.30
2023-05-09T01:23:15.284Z,24.13
2023-05-09T01:24:48.317Z,24.23
2023-05-09T01:26:28.843Z,26.63
2023-05-09T01:27:45.545Z,23.50
2023-05-09T01:29:24.889Z,25.70
2023-05-09T01:30:27.662Z,22.75
2023-05-09T01:31:30.559Z,27.42
2023-05-09T01:32:34.655Z,22.73
2023-05-09T01:33:40.703Z,26.70
2023-05-09T01:34:45.078Z,27.80
2023-05-09T01:35:52.362Z,27.27
2023-05-09T01:36:58.548Z,27.92
2023-05-09T01:38:02.482Z,25.65
2023-05-09T01:39:05.974Z,24.60
2023-05-09T01:40:20.316Z,23.58
2023-05-09T01:41:24.732Z,27.23
2023-05-09T01:42:31.067Z,24.70
2023-05-09T01:43:33.921Z,29.08
2023-05-09T01:44:41.330Z,23.23
2023-05-09T01:45:44.095Z,23.55
2023-05-09T01:46:47.123Z,22.00
2023-05-09T01:47:49.581Z,22.92
2023-05-09T01:48:52.851Z,26.77
2023-05-09T01:49:56.394Z,21.75
2023-05-09T01:50:59.493Z,21.85
2023-05-09T01:52:15.157Z,22.75
2023-05-09T01:53:17.874Z,23.20
2023-05-09T01:54:22.388Z,24.13
2023-05-09T01:55:28.608Z,20.40
2023-05-09T01:56:31.931Z,18.95
2023-05-09T01:57:35.661Z,20.00
2023-05-09T01:58:38.627Z,20.25
2023-05-09T01:59:45.444Z,20.65
2023-05-09T02:00:48.698Z,21.23
2023-05-09T02:01:51.026Z,18.58
2023-05-09T02:02:53.519Z,19.45
2023-05-09T02:03:57.499Z,21.17
2023-05-09T02:05:00.559Z,19.35
2023-05-09T02:06:04.013Z,22.02
2023-05-09T02:07:06.756Z,21.65
2023-05-09T02:08:09.740Z,23.25
2023-05-09T02:09:12.983Z,20.60
2023-05-09T02:10:16.218Z,20.90
2023-05-09T02:11:17.977Z,25.40
2023-05-09T02:12:20.383Z,22.98
2023-05-09T02:13:22.147Z,26.30
2023-05-09T02:14:23.904Z,22.90
2023-05-09T02:15:26.326Z,23.42
2023-05-09T02:16:28.663Z,21.20
2023-05-09T02:17:30.927Z,22.45
2023-05-09T02:18:32.841Z,20.58
2023-05-09T02:19:35.875Z,20.85
2023-05-09T02:20:37.686Z,22.52
2023-05-09T02:21:39.491Z,25.30
2023-05-09T02:22:43.125Z,24.13
2023-05-09T02:23:44.965Z,20.20
2023-05-09T02:24:46.725Z,21.33
2023-05-09T02:25:48.734Z,21.73
2023-05-09T02:26:50.691Z,21.17
2023-05-09T02:27:55.736Z,21.08
2023-05-09T02:28:59.067Z,21.83
2023-05-09T02:30:07.558Z,23.17
2023-05-09T02:31:12.548Z,25.15
2023-05-09T02:32:19.199Z,23.98
2023-05-09T02:33:20.978Z,26.77
2023-05-09T02:34:23.288Z,25.30
2023-05-09T02:35:27.474Z,31.27
2023-05-09T02:36:29.736Z,39.33
2023-05-09T02:37:32.071Z,42.35
2023-05-09T02:38:34.777Z,41.40
2023-05-09T02:39:37.217Z,42.50
2023-05-09T02:40:39.623Z,41.70
2023-05-09T02:41:48.482Z,36.75
2023-05-09T02:42:50.215Z,36.15
2023-05-09T02:43:51.898Z,33.70
2023-05-09T02:44:54.111Z,33.13
2023-05-09T02:45:55.976Z,27.30
2023-05-09T02:46:57.681Z,28.85
2023-05-09T02:47:59.477Z,25.17
2023-05-09T02:49:01.189Z,25.23
2023-05-09T02:50:03.011Z,28.30
2023-05-09T02:51:04.910Z,26.77
2023-05-09T02:52:07.192Z,27.00
2023-05-09T02:53:09.245Z,23.38
2023-05-09T02:54:11.033Z,27.38
2023-05-09T02:55:13.131Z,24.20
2023-05-09T02:56:15.101Z,22.00
2023-05-09T02:57:16.915Z,24.00
2023-05-09T02:58:18.647Z,24.27
2023-05-09T02:59:20.500Z,24.23
2023-05-09T03:00:22.936Z,28.00
2023-05-09T03:01:25.071Z,23.33
2023-05-09T03:02:27.053Z,23.00
2023-05-09T03:03:29.073Z,25.90
2023-05-09T03:04:30.953Z,20.33
2023-05-09T03:05:32.683Z,24.08
2023-05-09T03:06:34.388Z,23.63
2023-05-09T03:07:37.119Z,24.08
2023-05-09T03:08:38.824Z,21.50
2023-05-09T03:09:41.269Z,24.23
2023-05-09T03:10:43.160Z,24.27
2023-05-09T03:11:44.865Z,27.58
2023-05-09T03:12:46.579Z,23.48
2023-05-09T03:13:48.342Z,28.92
2023-05-09T03:14:50.119Z,26.98
2023-05-09T03:15:51.850Z,26.48
2023-05-09T03:16:53.648Z,26.17
2023-05-09T03:17:55.506Z,26.48
2023-05-09T03:18:57.420Z,24.85
2023-05-09T03:19:59.970Z,25.85
2023-05-09T03:21:03.368Z,22.30
2023-05-09T03:22:05.073Z,23.20
2023-05-09T03:23:06.768Z,28.40
2023-05-09T03:24:08.708Z,25.45
2023-05-09T03:25:10.407Z,24.27
2023-05-09T03:26:12.272Z,22.48
2023-05-09T03:27:15.237Z,24.40
2023-05-09T03:28:16.908Z,25.27
2023-05-09T03:29:18.598Z,24.70
2023-05-09T03:30:20.399Z,23.17
2023-05-09T03:31:22.177Z,23.60
2023-05-09T03:32:24.039Z,25.98
2023-05-09T03:33:26.047Z,28.33
2023-05-09T03:34:27.793Z,27.35
2023-05-09T03:35:29.549Z,25.42
2023-05-09T03:36:32.406Z,28.52
2023-05-09T03:37:34.102Z,28.63
2023-05-09T03:38:35.817Z,30.55
2023-05-09T03:39:37.616Z,26.67
2023-05-09T03:40:39.304Z,26.85
2023-05-09T03:41:41.905Z,23.73
2023-05-09T03:42:43.612Z,26.48
2023-05-09T03:43:45.704Z,27.83
2023-05-09T03:44:47.686Z,26.88
2023-05-09T03:45:49.443Z,25.92
2023-05-09T03:46:51.217Z,26.73
2023-05-09T03:47:52.953Z,24.23
2023-05-09T03:48:54.920Z,27.63
2023-05-09T03:49:56.612Z,27.73
2023-05-09T03:50:58.566Z,24.05
2023-05-09T03:52:00.392Z,27.02
2023-05-09T03:53:02.565Z,28.85
2023-05-09T03:54:04.469Z,25.67
2023-05-09T03:55:06.772Z,25.17
2023-05-09T03:56:08.599Z,25.48
2023-05-09T03:57:10.294Z,26.80
2023-05-09T03:58:12.808Z,23.52
2023-05-09T03:59:14.501Z,23.77
2023-05-09T04:00:16.473Z,26.90
2023-05-09T04:01:18.414Z,25.52
2023-05-09T04:02:20.237Z,23.90
2023-05-09T04:03:22.236Z,25.67
2023-05-09T04:04:24.050Z,26.30
2023-05-09T04:05:27.161Z,26.45
2023-05-09T04:06:30.214Z,26.90
2023-05-09T04:07:32.009Z,30.70
2023-05-09T04:08:34.127Z,32.63
2023-05-09T04:09:35.856Z,29.80
2023-05-09T04:10:37.599Z,27.50
2023-05-09T04:11:39.578Z,31.65
2023-05-09T04:12:41.381Z,30.73
2023-05-09T04:13:43.132Z,30.75
2023-05-09T04:14:46.767Z,32.70
2023-05-09T04:15:49.946Z,32.47
2023-05-09T04:16:51.756Z,32.38
2023-05-09T04:17:53.510Z,33.25
2023-05-09T04:18:55.353Z,33.42
2023-05-09T04:19:57.026Z,31.95
2023-05-09T04:20:58.826Z,31.92
2023-05-09T04:22:00.623Z,33.55
2023-05-09T04:23:02.404Z,31.30
2023-05-09T04:24:04.130Z,33.80
2023-05-09T04:25:06.696Z,33.50
2023-05-09T04:26:09.814Z,30.33
2023-05-09T04:27:11.586Z,31.30
2023-05-09T04:28:13.406Z,31.48
2023-05-09T04:29:15.121Z,34.63
2023-05-09T04:30:16.889Z,32.65
2023-05-09T04:31:19.508Z,30.80
2023-05-09T04:32:23.456Z,35.13
2023-05-09T04:33:25.171Z,31.10
2023-05-09T04:34:27.828Z,34.65
2023-05-09T04:35:30.362Z,36.90
2023-05-09T04:36:33.923Z,34.88
2023-05-09T04:37:35.802Z,32.47
2023-05-09T04:38:37.497Z,33.70
2023-05-09T04:39:40.151Z,36.80
2023-05-09T04:40:41.880Z,35.38
2023-05-09T04:41:44.666Z,35.78
2023-05-09T04:42:46.473Z,41.20
2023-05-09T04:43:48.205Z,33.80
2023-05-09T04:44:49.927Z,36.80
2023-05-09T04:45:51.827Z,36.67
2023-05-09T04:46:55.231Z,34.33
2023-05-09T04:47:56.964Z,39.65
2023-05-09T04:48:58.768Z,38.67
2023-05-09T04:50:00.545Z,34.65
2023-05-09T04:51:05.110Z,36.35
2023-05-09T04:52:07.255Z,36.53
2023-05-09T04:53:09.230Z,29.73
2023-05-09T04:54:11.189Z,34.38
2023-05-09T04:55:13.102Z,30.10
2023-05-09T04:56:14.954Z,29.63
2023-05-09T04:57:18.847Z,26.90
2023-05-09T04:58:20.926Z,26.25
2023-05-09T04:59:22.668Z,31.52
2023-05-09T05:00:24.372Z,29.27
2023-05-09T05:01:26.779Z,27.05
2023-05-09T05:02:28.608Z,29.13
2023-05-09T05:03:30.379Z,27.60
2023-05-09T05:04:32.704Z,29.10
2023-05-09T05:05:37.215Z,32.15
2023-05-09T05:06:39.410Z,29.27
2023-05-09T05:07:41.143Z,35.53
2023-05-09T05:08:43.286Z,27.35
2023-05-09T05:09:45.022Z,29.90
2023-05-09T05:10:47.585Z,30.70
2023-05-09T05:11:59.588Z,29.60
2023-05-09T05:13:03.830Z,26.83
2023-05-09T05:14:05.630Z,25.15
2023-05-09T05:15:07.717Z,29.70
2023-05-09T05:16:09.493Z,32.78
2023-05-09T05:17:11.328Z,29.73
2023-05-09T05:18:13.113Z,29.65
2023-05-09T05:19:14.832Z,25.20
2023-05-09T05:20:16.679Z,23.48
2023-05-09T05:21:18.401Z,26.75
2023-05-09T05:22:20.133Z,25.15
2023-05-09T05:23:22.095Z,29.98
2023-05-09T05:24:23.799Z,29.05
2023-05-09T05:25:28.717Z,30.65
2023-05-09T05:26:30.825Z,30.23
2023-05-09T05:27:32.586Z,31.95
2023-05-09T05:28:34.347Z,35.92
2023-05-09T05:29:36.068Z,35.60
2023-05-09T05:30:37.891Z,30.58
2023-05-09T05:31:39.587Z,37.30
2023-05-09T05:32:42.125Z,31.77
2023-05-09T05:33:43.833Z,32.63
2023-05-09T05:34:45.582Z,32.38
2023-05-09T05:35:47.287Z,29.08
2023-05-09T05:36:49.004Z,27.80
2023-05-09T05:37:53.795Z,27.67
2023-05-09T05:38:55.606Z,29.95
2023-05-09T05:39:57.590Z,30.17
2023-05-09T05:40:59.276Z,25.50
2023-05-09T05:42:01.046Z,27.33
2023-05-09T05:43:02.783Z,22.45
2023-05-09T05:44:04.693Z,22.15
2023-05-09T05:45:06.967Z,25.67
2023-05-09T05:46:08.773Z,23.80
2023-05-09T05:47:10.643Z,22.33
2023-05-09T05:48:12.459Z,22.13
2023-05-09T05:49:14.224Z,27.20
2023-05-09T05:50:15.967Z,25.30
2023-05-09T05:51:17.684Z,25.73
2023-05-09T05:52:19.467Z,26.05
2023-05-09T05:53:21.188Z,25.02
2023-05-09T05:54:22.935Z,21.77
2023-05-09T05:55:24.754Z,22.55
2023-05-09T05:56:26.436Z,21.48
2023-05-09T05:57:28.112Z,24.10
2023-05-09T05:58:29.786Z,27.30
2023-05-09T05:59:31.493Z,20.30
2023-05-09T06:00:33.267Z,20.92
2023-05-09T06:01:35.081Z,20.63
2023-05-09T06:02:37.174Z,22.50
2023-05-09T06:03:38.986Z,23.75
2023-05-09T06:04:41.604Z,21.20
2023-05-09T06:05:47.423Z,26.38
2023-05-09T06:06:49.299Z,22.17
2023-05-09T06:07:50.979Z,21.90
2023-05-09T06:08:52.859Z,23.10
2023-05-09T06:09:54.587Z,24.65
2023-05-09T06:10:56.337Z,24.88
2023-05-09T06:11:58.091Z,24.83
2023-05-09T06:12:59.831Z,24.52
2023-05-09T06:14:01.543Z,24.20
2023-05-09T06:15:05.946Z,26.10
2023-05-09T06:16:18.623Z,27.88
2023-05-09T06:17:21.470Z,24.38
2023-05-09T06:18:23.417Z,27.05
2023-05-09T06:19:25.227Z,22.58
2023-05-09T06:20:27.311Z,22.95
2023-05-09T06:21:28.991Z,25.38
2023-05-09T06:22:30.770Z,24.83
2023-05-09T06:23:32.952Z,24.25
2023-05-09T06:24:36.347Z,22.45
2023-05-09T06:25:38.457Z,24.38
2023-05-09T06:26:40.679Z,25.58
2023-05-09T06:27:42.872Z,28.40
2023-05-09T06:28:44.587Z,27.13
2023-05-09T06:29:46.305Z,24.15
2023-05-09T06:30:48.002Z,26.75
2023-05-09T06:31:49.773Z,25.20
2023-05-09T06:32:51.501Z,29.95
2023-05-09T06:33:53.846Z,26.13
2023-05-09T06:34:55.588Z,23.88
2023-05-09T06:35:59.150Z,22.65
2023-05-09T06:37:00.908Z,23.70
2023-05-09T06:38:02.684Z,29.05
2023-05-09T06:39:04.533Z,22.35
2023-05-09T06:40:07.399Z,20.10
2023-05-09T06:41:09.086Z,25.02
2023-05-09T06:42:10.833Z,22.48
2023-05-09T06:43:12.612Z,25.73
2023-05-09T06:44:14.303Z,26.23
2023-05-09T06:45:16.421Z,23.52
2023-05-09T06:46:18.608Z,20.55
2023-05-09T06:47:20.396Z,24.38
2023-05-09T06:48:24.030Z,28.15
2023-05-09T06:49:26.558Z,26.20
2023-05-09T06:50:29.091Z,29.65
2023-05-09T06:51:31.815Z,28.80
2023-05-09T06:52:33.510Z,28.08
2023-05-09T06:53:35.328Z,27.75
2023-05-09T06:54:37.015Z,27.45
2023-05-09T06:55:38.926Z,29.30
2023-05-09T06:56:40.929Z,28.98
2023-05-09T06:57:42.700Z,24.38
2023-05-09T06:58:44.428Z,26.13
2023-05-09T06:59:46.253Z,27.02
2023-05-09T07:00:48.113Z,26.17
2023-05-09T07:01:50.039Z,25.35
2023-05-09T07:02:51.810Z,23.65
2023-05-09T07:03:53.551Z,27.95
2023-05-09T07:04:55.285Z,28.63
2023-05-09T07:05:59.059Z,30.35
2023-05-09T07:07:01.071Z,24.17
2023-05-09T07:08:02.849Z,23.13
2023-05-09T07:09:07.360Z,23.30
2023-05-09T07:10:12.333Z,27.35
2023-05-09T07:11:14.461Z,22.50
2023-05-09T07:12:16.218Z,24.08
2023-05-09T07:13:18.056Z,25.85
2023-05-09T07:14:20.630Z,24.48
2023-05-09T07:15:36.642Z,26.20
2023-05-09T07:16:42.819Z,21.42
2023-05-09T07:17:44.590Z,27.58
2023-05-09T07:18:46.384Z,29.02
2023-05-09T07:19:48.068Z,23.30
2023-05-09T07:20:49.835Z,26.85
2023-05-09T07:21:51.559Z,26.42
2023-05-09T07:22:53.271Z,26.73
2023-05-09T07:23:54.982Z,26.17
2023-05-09T07:24:56.741Z,28.05
2023-05-09T07:25:59.085Z,27.10
2023-05-09T07:27:03.956Z,28.60
2023-05-09T07:28:06.043Z,28.42
2023-05-09T07:29:07.732Z,29.60
2023-05-09T07:30:09.778Z,26.20
2023-05-09T07:31:11.569Z,29.00
2023-05-09T07:32:13.332Z,25.42
2023-05-09T07:33:15.056Z,27.50
2023-05-09T07:34:17.252Z,29.23
2023-05-09T07:35:20.070Z,23.13
2023-05-09T07:36:21.855Z,22.77
2023-05-09T07:37:23.625Z,22.52
2023-05-09T07:38:25.588Z,28.20
2023-05-09T07:39:27.293Z,21.10
2023-05-09T07:40:29.023Z,24.63
2023-05-09T07:41:31.645Z,24.13
2023-05-09T07:42:33.402Z,23.70
2023-05-09T07:43:35.234Z,25.48
2023-05-09T07:44:36.919Z,25.58
2023-05-09T07:45:38.669Z,25.10
2023-05-09T07:46:42.231Z,22.02
2023-05-09T07:47:44.340Z,24.30
2023-05-09T07:48:46.102Z,27.17
2023-05-09T07:49:48.183Z,28.58
2023-05-09T07:50:49.900Z,30.70
2023-05-09T07:51:51.634Z,28.73
2023-05-09T07:52:53.622Z,27.42
2023-05-09T07:53:56.655Z,34.40
2023-05-09T07:54:58.415Z,30.40
2023-05-09T07:56:00.836Z,27.13
2023-05-09T07:57:02.588Z,24.35
2023-05-09T07:58:04.299Z,28.38
2023-05-09T07:59:06.040Z,24.98
2023-05-09T08:00:11.456Z,26.25
2023-05-09T08:01:13.146Z,32.78
2023-05-09T08:02:14.843Z,31.77
2023-05-09T08:03:16.714Z,28.52
2023-05-09T08:04:18.613Z,32.45
2023-05-09T08:05:20.515Z,31.20
2023-05-09T08:06:22.385Z,28.23
2023-05-09T08:07:24.651Z,30.00
2023-05-09T08:08:27.218Z,22.58
2023-05-09T08:09:28.888Z,29.17
2023-05-09T08:10:31.160Z,30.23
2023-05-09T08:11:34.599Z,30.83
2023-05-09T08:12:36.442Z,25.02
2023-05-09T08:13:38.178Z,25.60
2023-05-09T08:14:39.950Z,32.25
2023-05-09T08:15:41.764Z,28.92
2023-05-09T08:16:43.554Z,25.60
2023-05-09T08:17:45.330Z,30.05
2023-05-09T08:18:47.173Z,32.55
2023-05-09T08:19:48.952Z,29.23
2023-05-09T08:20:51.164Z,30.08
2023-05-09T08:21:53.433Z,31.73
2023-05-09T08:22:55.158Z,32.47
2023-05-09T08:23:57.080Z,32.88
2023-05-09T08:24:58.808Z,26.98
2023-05-09T08:26:00.677Z,26.00
2023-05-09T08:27:03.022Z,25.85
2023-05-09T08:28:04.872Z,26.80
2023-05-09T08:29:06.575Z,28.58
2023-05-09T08:30:08.755Z,30.23
2023-05-09T08:31:10.689Z,30.08
2023-05-09T08:32:12.450Z,33.90
2023-05-09T08:33:14.187Z,34.22
2023-05-09T08:34:16.203Z,36.38
2023-05-09T08:35:18.034Z,33.30
2023-05-09T08:36:19.791Z,33.50
2023-05-09T08:37:21.500Z,30.63
2023-05-09T08:38:24.502Z,33.17
2023-05-09T08:39:26.256Z,36.90
2023-05-09T08:40:27.943Z,30.20
2023-05-09T08:41:36.023Z,33.00
2023-05-09T08:42:40.864Z,31.67
2023-05-09T08:43:42.946Z,29.80
2023-05-09T08:44:44.695Z,33.53
2023-05-09T08:45:51.490Z,30.20
2023-05-09T08:46:56.900Z,29.40
2023-05-09T08:47:59.845Z,32.03
2023-05-09T08:49:01.862Z,33.88
2023-05-09T08:50:04.498Z,31.35
2023-05-09T08:51:07.532Z,29.92
2023-05-09T08:52:09.427Z,27.55
2023-05-09T08:53:12.478Z,34.22
2023-05-09T08:54:15.549Z,27.35
2023-05-09T08:55:17.546Z,30.50
2023-05-09T08:56:19.461Z,33.58
2023-05-09T08:57:21.204Z,32.83
2023-05-09T08:58:23.287Z,34.40
2023-05-09T08:59:26.626Z,33.90
2023-05-09T09:00:32.113Z,31.38
2023-05-09T09:01:37.502Z,28.63
2023-05-09T09:02:41.868Z,31.65
2023-05-09T09:03:47.778Z,28.08
2023-05-09T09:04:49.611Z,30.38
2023-05-09T09:05:52.276Z,29.30
2023-05-09T09:06:54.601Z,30.75
2023-05-09T09:07:58.395Z,35.03
2023-05-09T09:09:01.053Z,31.55
2023-05-09T09:10:04.488Z,28.85
2023-05-09T09:11:07.434Z,28.75
2023-05-09T09:12:10.381Z,28.77
2023-05-09T09:13:13.821Z,30.50
2023-05-09T09:14:27.728Z,27.08
2023-05-09T09:15:34.052Z,25.55
2023-05-09T09:16:37.586Z,27.48
2023-05-09T09:17:42.868Z,25.27
2023-05-09T09:18:46.230Z,28.17
2023-05-09T09:19:50.440Z,32.60
2023-05-09T09:20:58.117Z,29.02
2023-05-09T09:22:04.610Z,29.90
2023-05-09T09:23:12.464Z,34.47
2023-05-09T09:24:14.840Z,29.13
2023-05-09T09:25:16.575Z,32.80
2023-05-09T09:26:18.416Z,29.13
2023-05-09T09:27:20.163Z,27.67
2023-05-09T09:28:22.039Z,29.20
2023-05-09T09:29:24.652Z,29.90
2023-05-09T09:30:26.756Z,32.15
2023-05-09T09:31:32.498Z,31.38
2023-05-09T09:32:34.895Z,29.25
2023-05-09T09:33:36.664Z,37.63
2023-05-09T09:34:38.396Z,38.22
2023-05-09T09:35:41.324Z,34.83
2023-05-09T09:36:43.280Z,37.83
2023-05-09T09:37:45.086Z,32.78
2023-05-09T09:38:46.997Z,36.08
2023-05-09T09:39:58.090Z,35.33
2023-05-09T09:40:59.803Z,34.60
2023-05-09T09:42:13.686Z,36.08
2023-05-09T09:43:15.525Z,29.25
2023-05-09T09:44:22.165Z,32.78
2023-05-09T09:45:24.010Z,31.02
2023-05-09T09:46:26.177Z,29.13
2023-05-09T09:47:33.980Z,29.75
2023-05-09T09:48:36.398Z,29.88
2023-05-09T09:49:46.191Z,23.23
2023-05-09T09:50:48.571Z,28.20
2023-05-09T09:51:57.772Z,23.35
2023-05-09T09:53:01.053Z,23.20
2023-05-09T09:54:03.551Z,25.30
2023-05-09T09:55:05.963Z,31.27
2023-05-09T09:56:08.369Z,29.10
2023-05-09T09:57:10.091Z,26.83
2023-05-09T09:58:19.320Z,27.13
2023-05-09T09:59:25.992Z,25.10
2023-05-09T10:00:28.619Z,23.30
2023-05-09T10:01:30.487Z,24.48
2023-05-09T10:02:32.979Z,27.35
2023-05-09T10:03:38.161Z,27.27
2023-05-09T10:04:43.431Z,24.98
2023-05-09T10:05:45.222Z,28.73
2023-05-09T10:07:01.060Z,27.25
2023-05-09T10:08:04.874Z,29.38
2023-05-09T10:09:06.832Z,33.33
2023-05-09T10:10:09.428Z,35.08
2023-05-09T10:11:11.765Z,33.92
2023-05-09T10:12:15.594Z,34.40
2023-05-09T10:13:17.421Z,35.38
2023-05-09T10:14:21.299Z,31.58
2023-05-09T10:15:23.972Z,36.13
2023-05-09T10:16:40.190Z,35.95
2023-05-09T10:17:46.096Z,34.75
2023-05-09T10:18:48.187Z,44.67
2023-05-09T10:19:51.154Z,38.90
2023-05-09T10:20:54.111Z,42.92
2023-05-09T10:21:58.320Z,40.28
2023-05-09T10:23:02.772Z,39.78
2023-05-09T10:24:05.813Z,41.78
2023-05-09T10:25:19.864Z,43.15
2023-05-09T10:26:32.052Z,39.83
2023-05-09T10:27:36.568Z,36.00
2023-05-09T10:28:40.744Z,36.55
2023-05-09T10:29:46.594Z,38.10
2023-05-09T10:31:28.515Z,30.63
2023-05-09T10:33:56.063Z,30.83
2023-05-09T10:35:05.332Z,27.42
2023-05-09T10:36:08.521Z,29.15
2023-05-09T10:37:10.525Z,31.27
2023-05-09T10:38:12.752Z,30.50
2023-05-09T10:39:15.896Z,36.10
2023-05-09T10:40:19.968Z,30.80
2023-05-09T10:41:22.390Z,35.67
2023-05-09T10:42:25.403Z,27.42
2023-05-09T10:43:28.078Z,28.15
2023-05-09T10:44:29.812Z,29.05
2023-05-09T10:45:31.944Z,29.13
2023-05-09T10:46:34.115Z,23.10
2023-05-09T10:47:37.130Z,26.58
2023-05-09T10:48:40.142Z,28.15
2023-05-09T10:49:44.520Z,26.80
2023-05-09T10:50:46.999Z,26.23
2023-05-09T10:51:51.374Z,27.88
2023-05-09T10:53:06.187Z,26.58
2023-05-09T10:54:16.560Z,37.90
2023-05-09T10:55:18.296Z,30.87
2023-05-09T10:56:27.171Z,25.95
2023-05-09T10:57:31.410Z,27.25
2023-05-09T10:58:36.349Z,24.35
2023-05-09T10:59:42.642Z,26.70
2023-05-09T11:00:44.687Z,23.08
2023-05-09T11:01:46.973Z,22.85
2023-05-09T11:03:15.344Z,26.88
2023-05-09T11:04:17.502Z,25.38
2023-05-09T11:05:20.405Z,24.20
2023-05-09T11:06:51.643Z,24.90
2023-05-09T11:09:39.045Z,22.63
2023-05-09T11:10:43.856Z,29.48
2023-05-09T11:11:53.467Z,29.48
2023-05-09T11:12:57.990Z,27.10
2023-05-09T11:14:00.176Z,23.27
2023-05-09T11:15:08.000Z,28.33
2023-05-09T11:16:11.073Z,27.05
2023-05-09T11:17:28.380Z,32.58
2023-05-09T11:18:32.486Z,30.83
2023-05-09T11:19:47.299Z,29.20
2023-05-09T11:20:49.397Z,32.67
2023-05-09T11:22:03.061Z,31.45
2023-05-09T11:23:06.212Z,30.13
2023-05-09T11:24:17.811Z,30.60
2023-05-09T11:25:28.560Z,29.70
2023-05-09T11:26:30.887Z,24.40
2023-05-09T11:28:00.947Z,29.60
2023-05-09T11:29:06.785Z,27.75
2023-05-09T11:30:10.749Z,26.02
2023-05-09T11:31:14.333Z,26.98
2023-05-09T11:32:16.425Z,31.55
2023-05-09T11:33:30.302Z,27.70
2023-05-09T11:34:33.312Z,31.02
2023-05-09T11:35:37.691Z,30.67
2023-05-09T11:36:43.194Z,33.83
2023-05-09T11:38:00.232Z,29.95
2023-05-09T11:39:11.613Z,35.17
2023-05-09T11:40:15.333Z,29.10
2023-05-09T11:41:17.560Z,28.45
2023-05-09T11:42:19.745Z,28.10
2023-05-09T11:43:22.317Z,29.10
2023-05-09T11:44:24.595Z,28.33
2023-05-09T11:45:31.343Z,22.30
2023-05-09T11:46:33.128Z,19.35
2023-05-09T11:47:37.277Z,20.70
2023-05-09T11:48:40.037Z,28.80
2023-05-09T11:49:44.956Z,23.92
2023-05-09T11:50:48.100Z,24.70
2023-05-09T11:51:49.811Z,27.02
2023-05-09T11:52:52.147Z,24.60
2023-05-09T11:53:54.242Z,26.85
2023-05-09T11:54:56.044Z,24.13
2023-05-09T11:55:57.826Z,24.00
2023-05-09T11:57:02.651Z,22.10
2023-05-09T11:58:07.465Z,26.90
2023-05-09T11:59:10.655Z,21.45
2023-05-09T12:00:13.058Z,20.95
2023-05-09T12:01:14.878Z,22.55
2023-05-09T12:02:16.877Z,23.65
2023-05-09T12:03:20.168Z,25.45
2023-05-09T12:04:22.107Z,24.70
2023-05-09T12:05:23.985Z,23.25
2023-05-09T12:06:30.178Z,21.58
2023-05-09T12:07:32.026Z,21.67
2023-05-09T12:08:33.762Z,25.70
2023-05-09T12:09:39.112Z,21.13
2023-05-09T12:10:40.822Z,19.85
2023-05-09T12:11:50.185Z,21.13
2023-05-09T12:12:55.820Z,24.67
2023-05-09T12:13:57.733Z,23.25
2023-05-09T12:15:04.665Z,24.75
2023-05-09T12:16:09.219Z,18.65
2023-05-09T12:17:10.962Z,23.20
2023-05-09T12:18:12.694Z,24.55
2023-05-09T12:19:15.258Z,25.35
2023-05-09T12:20:17.034Z,33.83
2023-05-09T12:21:19.872Z,18.33
2023-05-09T12:22:22.205Z,17.85
2023-05-09T12:23:23.922Z,18.50
2023-05-09T12:24:30.230Z,18.35
2023-05-09T12:25:31.979Z,19.20
2023-05-09T12:26:33.933Z,20.45
2023-05-09T12:27:37.766Z,21.30
2023-05-09T12:28:40.025Z,17.90
2023-05-09T12:29:46.096Z,22.10
2023-05-09T12:30:48.109Z,22.55
2023-05-09T12:31:50.934Z,18.85
2023-05-09T12:32:52.950Z,19.63
2023-05-09T12:33:54.834Z,18.27
2023-05-09T12:34:56.612Z,20.92
2023-05-09T12:36:11.272Z,19.98
2023-05-09T12:37:18.063Z,20.83
2023-05-09T12:38:23.468Z,22.17
2023-05-09T12:39:26.796Z,24.10
2023-05-09T12:40:28.587Z,27.48
2023-05-09T12:41:41.409Z,22.25
2023-05-09T12:42:47.034Z,18.50
2023-05-09T12:43:49.888Z,16.95
2023-05-09T12:44:52.159Z,21.55
2023-05-09T12:45:54.151Z,19.17
2023-05-09T12:47:01.507Z,22.50
2023-05-09T12:48:04.907Z,21.17
2023-05-09T12:49:19.430Z,21.95
2023-05-09T12:50:21.571Z,19.92
2023-05-09T12:51:23.655Z,19.92
2023-05-09T12:52:25.844Z,19.92
2023-05-09T12:53:31.373Z,20.08
2023-05-09T12:54:33.100Z,19.70
2023-05-09T12:55:40.136Z,22.52
2023-05-09T12:56:41.841Z,21.15
2023-05-09T12:57:43.560Z,20.75
2023-05-09T12:58:53.556Z,18.90
2023-05-09T13:00:00.100Z,21.27
2023-05-09T13:01:04.981Z,21.30
2023-05-09T13:02:07.906Z,25.05
2023-05-09T13:03:25.507Z,23.60
2023-05-09T13:04:28.943Z,20.55
2023-05-09T13:05:32.013Z,20.27
2023-05-09T13:06:36.706Z,19.50
2023-05-09T13:07:46.728Z,28.85
2023-05-09T13:09:01.592Z,18.98
2023-05-09T13:10:03.652Z,27.10
2023-05-09T13:11:15.497Z,20.52
2023-05-09T13:12:19.618Z,22.35
2023-05-09T13:13:26.631Z,21.25
2023-05-09T13:14:28.646Z,17.23
2023-05-09T13:15:30.538Z,16.75
2023-05-09T13:16:32.536Z,19.73
2023-05-09T13:17:34.535Z,19.95
2023-05-09T13:18:36.634Z,18.70
2023-05-09T13:19:39.744Z,21.92
2023-05-09T13:20:41.504Z,17.90
2023-05-09T13:21:43.292Z,20.58
2023-05-09T13:22:46.763Z,17.73
2023-05-09T13:23:50.271Z,15.93
2023-05-09T13:24:52.099Z,18.35
2023-05-09T13:25:53.889Z,18.55
2023-05-09T13:26:55.790Z,19.00
2023-05-09T13:27:57.508Z,21.98
2023-05-09T13:28:59.340Z,16.77
2023-05-09T13:30:01.142Z,18.38
2023-05-09T13:31:04.165Z,20.75
2023-05-09T13:32:06.064Z,22.27
2023-05-09T13:33:21.223Z,17.60
2023-05-09T13:34:26.896Z,15.60
2023-05-09T13:35:28.705Z,18.08
2023-05-09T13:36:31.745Z,15.48
2023-05-09T13:37:34.311Z,18.98
2023-05-09T13:38:39.023Z,18.60
2023-05-09T13:39:40.830Z,23.88
2023-05-09T13:40:42.589Z,25.50
2023-05-09T13:41:44.302Z,18.75
2023-05-09T13:42:46.430Z,17.77
2023-05-09T13:43:48.498Z,20.48